Sommer S — WDG3830 — position and weather

sailwx.info

Track history (hours):
 
Tides and Currents Weather Stations Pressure Air Temp Water Temp Dewpoint Dewpoint Depression Visibility Wind Speed Wind Dir Waves Ship Positions

Sommer S

More information available from US FCC via Universal Licensing System and Coast Guard Vessel Documentation Center.

Last reported at 2014-Jul-23 10:33 UTC. Time now 2014-Jul-23 11:25 UTC.
Position N 45°34' W 122°44'.

Length 25 m.

Type: Tug. MMSI: 367530080.

Date/timePositionNaut miles runAvg speedWind from/ knotsBaromVisibWave heightAir tempDewpointWater temp
2014-Jul-23 10:33N 45°34' W 122°44'0 0.0
2014-Jul-23 04:11N 45°34' W 122°44'0 0.0
2014-Jul-23 03:30N 45°34' W 122°44'5 2.5
2014-Jul-23 01:27N 45°38' W 122°47'1 1.4
2014-Jul-23 00:31N 45°39' W 122°45'1 0.5
2014-Jul-22 23:24N 45°39' W 122°45'0 0.0
2014-Jul-22 22:30N 45°39' W 122°45'1 0.7
2014-Jul-22 21:32N 45°39' W 122°45'1 0.8
2014-Jul-22 20:29N 45°39' W 122°46'1 0.6
2014-Jul-22 19:24N 45°38' W 122°47'4 1.7
2014-Jul-22 17:07N 45°35' W 122°45'2 2.7
2014-Jul-22 16:30N 45°36' W 122°47'0 0.2
2014-Jul-22 15:32N 45°36' W 122°47'1 1.2
2014-Jul-22 14:31N 45°37' W 122°47'1 0.4
2014-Jul-22 12:31N 45°37' W 122°47'2 2.2
2014-Jul-22 11:27N 45°39' W 122°44'1 0.6
2014-Jul-22 10:32N 45°39' W 122°45'0 0.0
2014-Jul-22 09:32N 45°39' W 122°45'0 0.0
2014-Jul-22 08:32N 45°39' W 122°45'0 0.0
2014-Jul-22 07:14N 45°39' W 122°45'0 0.0
2014-Jul-22 04:26N 45°39' W 122°45'0 0.2
2014-Jul-22 03:17N 45°39' W 122°45'1 1.4
2014-Jul-22 02:30N 45°40' W 122°46'3 0.3
2014-Jul-21 16:30N 45°37' W 122°47'4 3.4
2014-Jul-21 15:27N 45°38' W 122°42'4 0.5
2014-Jul-21 07:26N 45°35' W 122°46'6 5.9
2014-Jul-21 06:30N 45°41' W 122°46'9 8.7
2014-Jul-21 05:26N 45°50' W 122°47'8 8.2
2014-Jul-21 04:25N 45°58' W 122°49'8 8.4
2014-Jul-21 03:26N 46°05' W 122°55'2 1.9
2014-Jul-21 02:26N 46°06' W 122°57'0 0.1
2014-Jul-21 01:30N 46°06' W 122°57'0 0.1
2014-Jul-21 00:29N 46°06' W 122°57'0 0.1
2014-Jul-20 23:32N 46°06' W 122°57'0 0.2
2014-Jul-20 22:33N 46°06' W 122°58'0 0.0
2014-Jul-20 21:33N 46°06' W 122°58'0 0.5
2014-Jul-20 20:31N 46°06' W 122°57'4 3.2
2014-Jul-20 19:24N 46°04' W 122°53'910.4
2014-Jul-20 18:33N 45°56' W 122°48'1212.1
2014-Jul-20 17:32N 45°43' W 122°46'5 4.7
2014-Jul-20 16:30N 45°39' W 122°45'0 0.0
2014-Jul-20 15:32N 45°39' W 122°45'2 1.4
2014-Jul-20 14:24N 45°38' W 122°42'2 1.6
2014-Jul-20 13:15N 45°39' W 122°45'0 0.2
2014-Jul-20 12:32N 45°39' W 122°45'0 0.0
2014-Jul-20 11:33N 45°39' W 122°45'0 0.0
2014-Jul-20 10:33N 45°39' W 122°45'0 0.0
2014-Jul-20 09:32N 45°39' W 122°45'0 0.0
2014-Jul-20 08:33N 45°39' W 122°45'0 0.0
2014-Jul-20 07:33N 45°39' W 122°45'0 0.0
2014-Jul-20 06:33N 45°39' W 122°45'0 0.0
2014-Jul-20 05:33N 45°39' W 122°45'0 0.0
2014-Jul-20 04:33N 45°39' W 122°45'0 0.0
2014-Jul-20 03:32N 45°39' W 122°45'0 0.0
2014-Jul-20 02:33N 45°39' W 122°45'2 1.6
2014-Jul-20 01:33N 45°38' W 122°43'3 2.7
2014-Jul-20 00:33N 45°38' W 122°47'0 0.0
2014-Jul-19 23:33N 45°38' W 122°47'2 2.2
2014-Jul-19 22:30N 45°36' W 122°47'3 3.1
2014-Jul-19 21:32N 45°39' W 122°45'2 1.2
2014-Jul-19 20:06N 45°38' W 122°43'2 4.2
2014-Jul-19 19:32N 45°39' W 122°46'5 5.5
2014-Jul-19 18:33N 45°34' W 122°44'0 0.0
2014-Jul-19 17:33N 45°34' W 122°44'0 0.0
2014-Jul-19 16:33N 45°34' W 122°44'0 0.1
2014-Jul-19 15:33N 45°34' W 122°44'0 0.1
2014-Jul-19 14:33N 45°34' W 122°44'1 0.6
2014-Jul-19 13:29N 45°34' W 122°43'0 0.0
2014-Jul-19 12:33N 45°34' W 122°43'1 0.2
2014-Jul-19 09:23N 45°34' W 122°44'0 0.0
2014-Jul-19 06:29N 45°34' W 122°44'0 0.0
2014-Jul-19 05:17N 45°34' W 122°44'0 0.0
2014-Jul-19 04:05N 45°34' W 122°44'0 0.0
2014-Jul-19 03:28N 45°34' W 122°44'0 0.0
2014-Jul-19 02:29N 45°34' W 122°44'0 0.0
2014-Jul-19 01:29N 45°34' W 122°44'0 0.0
2014-Jul-18 23:05N 45°34' W 122°44'0 0.1
2014-Jul-18 20:33N 45°34' W 122°43'0 0.4
2014-Jul-18 19:33N 45°34' W 122°44'0 0.0
2014-Jul-18 14:13N 45°34' W 122°44'0 0.2
2014-Jul-18 13:30N 45°34' W 122°43'0 0.1
2014-Jul-18 10:28N 45°34' W 122°44'0 0.0
2014-Jul-18 09:28N 45°34' W 122°44'0 0.0
2014-Jul-18 08:28N 45°34' W 122°44'0 0.0
2014-Jul-18 07:31N 45°34' W 122°44'0 0.0
2014-Jul-18 04:31N 45°34' W 122°44'0 0.0
2014-Jul-18 03:31N 45°34' W 122°44'0 0.0
2014-Jul-18 01:20N 45°34' W 122°44'0 0.1
2014-Jul-17 22:33N 45°34' W 122°44'  
2014-Jul-14 20:31N 45°34' W 122°44'0 0.0
2014-Jul-14 18:31N 45°34' W 122°44'0 0.0
2014-Jul-14 17:28N 45°34' W 122°44'0 0.0
2014-Jul-14 16:25N 45°34' W 122°44'  
Track history (hours):
 
Tides and Currents Weather Stations Pressure Air Temp Water Temp Dewpoint Dewpoint Depression Visibility Wind Speed Wind Dir Waves Ship Positions

Sommer S

More information available from US FCC via Universal Licensing System and Coast Guard Vessel Documentation Center.

Last reported at 2014-Jul-23 10:33 UTC. Time now 2014-Jul-23 11:25 UTC.
Position N 45°34' W 122°44'.

Length 25 m.

Type: Tug. MMSI: 367530080.

Date/timePositionNaut miles runAvg speedWind from/ knotsBaromVisibWave heightAir tempDewpointWater temp
2014-Jul-23 10:33N 45°34' W 122°44'0 0.0
2014-Jul-23 04:11N 45°34' W 122°44'0 0.0
2014-Jul-23 03:30N 45°34' W 122°44'5 2.5
2014-Jul-23 01:27N 45°38' W 122°47'1 1.4
2014-Jul-23 00:31N 45°39' W 122°45'1 0.5
2014-Jul-22 23:24N 45°39' W 122°45'0 0.0
2014-Jul-22 22:30N 45°39' W 122°45'1 0.7
2014-Jul-22 21:32N 45°39' W 122°45'1 0.8
2014-Jul-22 20:29N 45°39' W 122°46'1 0.6
2014-Jul-22 19:24N 45°38' W 122°47'4 1.7
2014-Jul-22 17:07N 45°35' W 122°45'2 2.7
2014-Jul-22 16:30N 45°36' W 122°47'0 0.2
2014-Jul-22 15:32N 45°36' W 122°47'1 1.2
2014-Jul-22 14:31N 45°37' W 122°47'1 0.4
2014-Jul-22 12:31N 45°37' W 122°47'2 2.2
2014-Jul-22 11:27N 45°39' W 122°44'1 0.6
2014-Jul-22 10:32N 45°39' W 122°45'0 0.0
2014-Jul-22 09:32N 45°39' W 122°45'0 0.0
2014-Jul-22 08:32N 45°39' W 122°45'0 0.0
2014-Jul-22 07:14N 45°39' W 122°45'0 0.0
2014-Jul-22 04:26N 45°39' W 122°45'0 0.2
2014-Jul-22 03:17N 45°39' W 122°45'1 1.4
2014-Jul-22 02:30N 45°40' W 122°46'3 0.3
2014-Jul-21 16:30N 45°37' W 122°47'4 3.4
2014-Jul-21 15:27N 45°38' W 122°42'4 0.5
2014-Jul-21 07:26N 45°35' W 122°46'6 5.9
2014-Jul-21 06:30N 45°41' W 122°46'9 8.7
2014-Jul-21 05:26N 45°50' W 122°47'8 8.2
2014-Jul-21 04:25N 45°58' W 122°49'8 8.4
2014-Jul-21 03:26N 46°05' W 122°55'2 1.9
2014-Jul-21 02:26N 46°06' W 122°57'0 0.1
2014-Jul-21 01:30N 46°06' W 122°57'0 0.1
2014-Jul-21 00:29N 46°06' W 122°57'0 0.1
2014-Jul-20 23:32N 46°06' W 122°57'0 0.2
2014-Jul-20 22:33N 46°06' W 122°58'0 0.0
2014-Jul-20 21:33N 46°06' W 122°58'0 0.5
2014-Jul-20 20:31N 46°06' W 122°57'4 3.2
2014-Jul-20 19:24N 46°04' W 122°53'910.4
2014-Jul-20 18:33N 45°56' W 122°48'1212.1
2014-Jul-20 17:32N 45°43' W 122°46'5 4.7
2014-Jul-20 16:30N 45°39' W 122°45'0 0.0
2014-Jul-20 15:32N 45°39' W 122°45'2 1.4
2014-Jul-20 14:24N 45°38' W 122°42'2 1.6
2014-Jul-20 13:15N 45°39' W 122°45'0 0.2
2014-Jul-20 12:32N 45°39' W 122°45'0 0.0
2014-Jul-20 11:33N 45°39' W 122°45'0 0.0
2014-Jul-20 10:33N 45°39' W 122°45'0 0.0
2014-Jul-20 09:32N 45°39' W 122°45'0 0.0
2014-Jul-20 08:33N 45°39' W 122°45'0 0.0
2014-Jul-20 07:33N 45°39' W 122°45'0 0.0
2014-Jul-20 06:33N 45°39' W 122°45'0 0.0
2014-Jul-20 05:33N 45°39' W 122°45'0 0.0
2014-Jul-20 04:33N 45°39' W 122°45'0 0.0
2014-Jul-20 03:32N 45°39' W 122°45'0 0.0
2014-Jul-20 02:33N 45°39' W 122°45'2 1.6
2014-Jul-20 01:33N 45°38' W 122°43'3 2.7
2014-Jul-20 00:33N 45°38' W 122°47'0 0.0
2014-Jul-19 23:33N 45°38' W 122°47'2 2.2
2014-Jul-19 22:30N 45°36' W 122°47'3 3.1
2014-Jul-19 21:32N 45°39' W 122°45'2 1.2
2014-Jul-19 20:06N 45°38' W 122°43'2 4.2
2014-Jul-19 19:32N 45°39' W 122°46'5 5.5
2014-Jul-19 18:33N 45°34' W 122°44'0 0.0
2014-Jul-19 17:33N 45°34' W 122°44'0 0.0
2014-Jul-19 16:33N 45°34' W 122°44'0 0.1
2014-Jul-19 15:33N 45°34' W 122°44'0 0.1
2014-Jul-19 14:33N 45°34' W 122°44'1 0.6
2014-Jul-19 13:29N 45°34' W 122°43'0 0.0
2014-Jul-19 12:33N 45°34' W 122°43'1 0.2
2014-Jul-19 09:23N 45°34' W 122°44'0 0.0
2014-Jul-19 06:29N 45°34' W 122°44'0 0.0
2014-Jul-19 05:17N 45°34' W 122°44'0 0.0
2014-Jul-19 04:05N 45°34' W 122°44'0 0.0
2014-Jul-19 03:28N 45°34' W 122°44'0 0.0
2014-Jul-19 02:29N 45°34' W 122°44'0 0.0
2014-Jul-19 01:29N 45°34' W 122°44'0 0.0
2014-Jul-18 23:05N 45°34' W 122°44'0 0.1
2014-Jul-18 20:33N 45°34' W 122°43'0 0.4
2014-Jul-18 19:33N 45°34' W 122°44'0 0.0
2014-Jul-18 14:13N 45°34' W 122°44'0 0.2
2014-Jul-18 13:30N 45°34' W 122°43'0 0.1
2014-Jul-18 10:28N 45°34' W 122°44'0 0.0
2014-Jul-18 09:28N 45°34' W 122°44'0 0.0
2014-Jul-18 08:28N 45°34' W 122°44'0 0.0
2014-Jul-18 07:31N 45°34' W 122°44'0 0.0
2014-Jul-18 04:31N 45°34' W 122°44'0 0.0
2014-Jul-18 03:31N 45°34' W 122°44'0 0.0
2014-Jul-18 01:20N 45°34' W 122°44'0 0.1
2014-Jul-17 22:33N 45°34' W 122°44'  
2014-Jul-14 20:31N 45°34' W 122°44'0 0.0
2014-Jul-14 18:31N 45°34' W 122°44'0 0.0
2014-Jul-14 17:28N 45°34' W 122°44'0 0.0
2014-Jul-14 16:25N 45°34' W 122°44'  

Dump ship's entire track history